Time;durP1;ratioP1;P1;durP2;ratioP2;P2;SDS_P1;SDS_P2;PMS_P1;PMS_P2;Temp;Humidity;BMP_temperature;BMP_pressure;BME280_temperature;BME280_humidity;BME280_pressure;Samples;Min_cycle;Max_cycle;Signal;HPM_P1;HPM_P2
2023/01/14 00:01:12;;;;;;;;;;;;;;;;;;5012363;28;19913;-56
2023/01/14 00:03:38;;;;;;;;;;;;;;;;;;5012391;28;19913;-58
2023/01/14 00:06:04;;;;;;;;;;;;;;;;;;5012411;28;20439;-58
2023/01/14 00:08:30;;;;;;;;;;;;;;;;;;5010907;28;20009;-57
2023/01/14 00:10:56;;;;;;;;;;;;;;;;;;5012307;28;20358;-58
2023/01/14 00:13:22;;;;;;;;;;;;;;;;;;5010949;28;19909;-57
2023/01/14 00:15:48;;;;;;;;;;;;;;;;;;5012624;28;19921;-56
2023/01/14 00:18:14;;;;;;;;;;;;;;;;;;5012055;28;19916;-57
2023/01/14 00:20:40;;;;;;;;;;;;;;;;;;5012103;28;20281;-58
2023/01/14 00:23:06;;;;;;;;;;;;;;;;;;5012138;28;19916;-58
2023/01/14 00:25:31;;;;;;;;;;;;;;;;;;5012315;28;19905;-58
2023/01/14 00:27:57;;;;;;;;;;;;;;;;;;5012152;28;19913;-58
2023/01/14 00:30:23;;;;;;;;;;;;;;;;;;5012020;28;19906;-58
2023/01/14 00:32:49;;;;;;;;;;;;;;;;;;5012048;28;20389;-58
2023/01/14 00:35:15;;;;;;;;;;;;;;;;;;5012049;28;20000;-56
2023/01/14 00:37:41;;;;;;;;;;;;;;;;;;5012166;28;19977;-58
2023/01/14 00:40:07;;;;;;;;;;;;;;;;;;5011800;28;20012;-58
2023/01/14 00:42:33;;;;;;;;;;;;;;;;;;5011952;28;19910;-58
2023/01/14 00:44:59;;;;;;;;;;;;;;;;;;5012014;28;19959;-57
2023/01/14 00:47:25;;;;;;;;;;;;;;;;;;5011951;28;19909;-56
2023/01/14 00:49:51;;;;;;;;;;;;;;;;;;5011619;28;19916;-56
2023/01/14 00:52:17;;;;;;;;;;;;;;;;;;5011826;28;19995;-56
2023/01/14 00:54:42;;;;;;;;;;;;;;;;;;5011760;28;20301;-55
2023/01/14 00:57:08;;;;;;;;;;;;;;;;;;5014129;28;19914;-58
2023/01/14 00:59:34;;;;;;;;;;;;;;;;;;5015597;28;19959;-57
2023/01/14 01:02:02;;;;;;;;;;;;;;;;;;5015758;28;20040;-56
2023/01/14 01:04:28;;;;;;;;;;;;;;;;;;5015602;28;19914;-58
2023/01/14 01:06:53;;;;;;;;;;;;;;;;;;5015671;28;19932;-57
2023/01/14 01:09:19;;;;;;;;;;;;;;;;;;5015476;28;20358;-58
2023/01/14 01:11:45;;;;;;;;;;;;;;;;;;5015431;28;20390;-58
2023/01/14 01:14:11;;;;;;;;;;;;;;;;;;5015626;28;20000;-57
2023/01/14 01:16:37;;;;;;;;;;;;;;;;;;5015412;28;19910;-57
2023/01/14 01:19:03;;;;;;;;;;;;;;;;;;5015180;28;20287;-57
2023/01/14 01:21:29;;;;;;;;;;;;;;;;;;5015114;28;19929;-58
2023/01/14 01:23:55;;;;;;;;;;;;;;;;;;5013882;28;19913;-58
2023/01/14 01:26:21;;;;;;;;;;;;;;;;;;5015171;28;20000;-56
2023/01/14 01:28:47;;;;;;;;;;;;;;;;;;5013803;28;20289;-56
2023/01/14 01:31:13;;;;;;;;;;;;;;;;;;5015182;28;20385;-57
2023/01/14 01:33:39;;;;;;;;;;;;;;;;;;5015042;28;19909;-56
2023/01/14 01:36:05;;;;;;;;;;;;;;;;;;5015151;28;20325;-57
2023/01/14 01:38:31;;;;;;;;;;;;;;;;;;5013432;28;20344;-57
2023/01/14 01:40:56;;;;;;;;;;;;;;;;;;5014878;28;19913;-57
2023/01/14 01:43:22;;;;;;;;;;;;;;;;;;5014775;28;20393;-57
2023/01/14 01:45:48;;;;;;;;;;;;;;;;;;5014743;28;19914;-57
2023/01/14 01:48:14;;;;;;;;;;;;;;;;;;5014616;28;19921;-58
2023/01/14 01:50:40;;;;;;;;;;;;;;;;;;5015051;28;19916;-57
2023/01/14 01:53:06;;;;;;;;;;;;;;;;;;5037561;22;19953;-57
2023/01/14 01:55:32;;;;;;;;;;;;;;;;;;5014624;28;19917;-60
2023/01/14 01:57:58;;;;;;;;;;;;;;;;;;5014764;28;19910;-59
2023/01/14 02:00:24;;;;;;;;;;;;;;;;;;5014400;28;19967;-60
2023/01/14 02:02:50;;;;;;;;;;;;;;;;;;5014468;28;19921;-59
2023/01/14 02:05:16;;;;;;;;;;;;;;;;;;5014589;28;19909;-60
2023/01/14 02:07:43;;;;;;;;;;;;;;;;;;5014394;28;19910;-60
2023/01/14 02:10:09;;;;;;;;;;;;;;;;;;5014668;28;20329;-59
2023/01/14 02:12:36;;;;;;;;;;;;;;;;;;5014397;28;19913;-60
2023/01/14 02:15:02;;;;;;;;;;;;;;;;;;5014388;28;19909;-57
2023/01/14 02:17:28;;;;;;;;;;;;;;;;;;5013002;28;19931;-60
2023/01/14 02:19:54;;;;;;;;;;;;;;;;;;5013940;28;20362;-59
2023/01/14 02:22:20;;;;;;;;;;;;;;;;;;5014117;28;20446;-60
2023/01/14 02:24:46;;;;;;;;;;;;;;;;;;5014546;28;20009;-57
2023/01/14 02:27:12;;;;;;;;;;;;;;;;;;5014089;28;20000;-60
2023/01/14 02:29:38;;;;;;;;;;;;;;;;;;5013786;28;19917;-59
2023/01/14 02:32:04;;;;;;;;;;;;;;;;;;5013950;28;19913;-58
2023/01/14 02:34:30;;;;;;;;;;;;;;;;;;5012718;28;19916;-61
2023/01/14 02:36:56;;;;;;;;;;;;;;;;;;5013904;28;20412;-60
2023/01/14 02:39:22;;;;;;;;;;;;;;;;;;5012282;28;19909;-58
2023/01/14 02:44:32;;;;;;;;;;;;;;;;;;5013718;28;19964;-60
2023/01/14 02:46:58;;;;;;;;;;;;;;;;;;5013715;28;19909;-58
2023/01/14 02:49:24;;;;;;;;;;;;;;;;;;5013389;28;19914;-59
2023/01/14 02:51:50;;;;;;;;;;;;;;;;;;5013482;28;19921;-58
2023/01/14 02:54:19;;;;;;;;;;;;;;;;;;5013653;28;20373;-59
2023/01/14 02:56:45;;;;;;;;;;;;;;;;;;5013555;28;19956;-58
2023/01/14 02:59:11;;;;;;;;;;;;;;;;;;5013283;28;20342;-58
2023/01/14 03:01:37;;;;;;;;;;;;;;;;;;5013304;28;19980;-60
2023/01/14 03:04:02;;;;;;;;;;;;;;;;;;5013327;28;19952;-56
2023/01/14 03:06:29;;;;;;;;;;;;;;;;;;5013404;28;19948;-58
2023/01/14 03:08:55;;;;;;;;;;;;;;;;;;5013343;28;19920;-59
2023/01/14 03:11:21;;;;;;;;;;;;;;;;;;5013307;28;20290;-58
2023/01/14 03:13:46;;;;;;;;;;;;;;;;;;5013218;28;19942;-61
2023/01/14 03:16:12;;;;;;;;;;;;;;;;;;5013101;28;19910;-59
2023/01/14 03:18:38;;;;;;;;;;;;;;;;;;5012445;28;19917;-60
2023/01/14 03:21:04;;;;;;;;;;;;;;;;;;5012081;28;19917;-60
2023/01/14 03:23:30;;;;;;;;;;;;;;;;;;5012399;28;20385;-60
2023/01/14 03:25:56;;;;;;;;;;;;;;;;;;5013049;28;19917;-56
2023/01/14 03:28:22;;;;;;;;;;;;;;;;;;5012916;28;19921;-55
2023/01/14 03:30:48;;;;;;;;;;;;;;;;;;5012901;28;19910;-60
2023/01/14 03:33:14;;;;;;;;;;;;;;;;;;5012801;28;20297;-60
2023/01/14 03:35:40;;;;;;;;;;;;;;;;;;5012900;28;19914;-60
2023/01/14 03:38:05;;;;;;;;;;;;;;;;;;5012712;28;19913;-61
2023/01/14 03:40:31;;;;;;;;;;;;;;;;;;5012579;28;19914;-56
2023/01/14 03:42:57;;;;;;;;;;;;;;;;;;5012825;28;19964;-58
2023/01/14 03:45:23;;;;;;;;;;;;;;;;;;5012744;28;20317;-59
2023/01/14 03:47:49;;;;;;;;;;;;;;;;;;5012649;28;19936;-58
2023/01/14 03:50:15;;;;;;;;;;;;;;;;;;5012475;28;20075;-59
2023/01/14 03:52:41;;;;;;;;;;;;;;;;;;5012558;28;20072;-60
2023/01/14 03:55:07;;;;;;;;;;;;;;;;;;5012581;28;19996;-59
2023/01/14 03:57:33;;;;;;;;;;;;;;;;;;5012514;28;20012;-59
2023/01/14 03:59:59;;;;;;;;;;;;;;;;;;5012222;28;19913;-60
2023/01/14 04:02:25;;;;;;;;;;;;;;;;;;5012360;28;20286;-60
2023/01/14 04:04:51;;;;;;;;;;;;;;;;;;5012490;28;19916;-55
2023/01/14 04:07:17;;;;;;;;;;;;;;;;;;5011149;28;19909;-59
2023/01/14 04:09:42;;;;;;;;;;;;;;;;;;5012116;28;19910;-59
2023/01/14 04:12:08;;;;;;;;;;;;;;;;;;5012213;28;19910;-58
2023/01/14 04:17:19;;;;;;;;;;;;;;;;;;5012394;28;19920;-60
2023/01/14 04:19:45;;;;;;;;;;;;;;;;;;5012022;28;19917;-59
2023/01/14 04:22:11;;;;;;;;;;;;;;;;;;5012132;28;19909;-56
2023/01/14 04:24:37;;;;;;;;;;;;;;;;;;5012299;28;20282;-59
2023/01/14 04:27:02;;;;;;;;;;;;;;;;;;5012151;28;19913;-57
2023/01/14 04:29:28;;;;;;;;;;;;;;;;;;5011941;28;19910;-58
2023/01/14 04:31:54;;;;;;;;;;;;;;;;;;5014100;28;19920;-59
2023/01/14 04:34:20;;;;;;;;;;;;;;;;;;5016215;28;20336;-59
2023/01/14 04:36:46;;;;;;;;;;;;;;;;;;5016101;28;19910;-58
2023/01/14 04:39:12;;;;;;;;;;;;;;;;;;5014552;28;19910;-59
2023/01/14 04:44:22;;;;;;;;;;;;;;;;;;5016051;28;19924;-58
2023/01/14 04:46:48;;;;;;;;;;;;;;;;;;5015888;28;19910;-59
2023/01/14 04:49:14;;;;;;;;;;;;;;;;;;5015658;28;20008;-58
2023/01/14 04:51:40;;;;;;;;;;;;;;;;;;5014689;28;19941;-59
2023/01/14 04:54:06;;;;;;;;;;;;;;;;;;5015736;28;19914;-61
2023/01/14 04:56:32;;;;;;;;;;;;;;;;;;5015754;28;19909;-60
2023/01/14 04:59:01;;;;;;;;;;;;;;;;;;5015512;28;20301;-59
2023/01/14 05:01:27;;;;;;;;;;;;;;;;;;5010397;28;19961;-58
2023/01/14 05:03:54;;;;;;;;;;;;;;;;;;5015454;28;19956;-59
2023/01/14 05:06:20;;;;;;;;;;;;;;;;;;5015817;28;19916;-61
2023/01/14 05:08:48;;;;;;;;;;;;;;;;;;5014001;28;19906;-60
2023/01/14 05:11:14;;;;;;;;;;;;;;;;;;5015391;28;19909;-60
2023/01/14 05:13:40;;;;;;;;;;;;;;;;;;5015373;28;19997;-60
2023/01/14 05:16:06;;;;;;;;;;;;;;;;;;5015460;28;20008;-60
2023/01/14 05:18:32;;;;;;;;;;;;;;;;;;5012594;28;20314;-60
2023/01/14 05:20:58;;;;;;;;;;;;;;;;;;5013987;28;20020;-60
2023/01/14 05:23:24;;;;;;;;;;;;;;;;;;5015180;28;19996;-59
2023/01/14 05:25:50;;;;;;;;;;;;;;;;;;5015184;28;20008;-60
2023/01/14 05:28:16;;;;;;;;;;;;;;;;;;5015033;28;20001;-59
2023/01/14 05:30:42;;;;;;;;;;;;;;;;;;5015158;28;20346;-60
2023/01/14 05:33:08;;;;;;;;;;;;;;;;;;5015060;28;19972;-57
2023/01/14 05:35:33;;;;;;;;;;;;;;;;;;5015277;28;20004;-59
2023/01/14 05:37:59;;;;;;;;;;;;;;;;;;5015028;28;20000;-60
2023/01/14 05:40:25;;;;;;;;;;;;;;;;;;5014662;28;19972;-60
2023/01/14 05:45:48;;;;;;;;;;;;;;;;;;5015128;28;20325;-60
2023/01/14 05:48:14;;;;;;;;;;;;;;;;;;5014724;28;19916;-60
2023/01/14 05:50:39;;;;;;;;;;;;;;;;;;5014646;28;20352;-61
2023/01/14 05:53:05;;;;;;;;;;;;;;;;;;5014601;28;19917;-59
2023/01/14 05:55:31;;;;;;;;;;;;;;;;;;5013463;28;20374;-59
2023/01/14 05:57:57;;;;;;;;;;;;;;;;;;5014720;28;19909;-59
2023/01/14 06:08:37;;;;;;;;;;;;;;;;;;5014276;28;20000;-60
2023/01/14 06:11:03;;;;;;;;;;;;;;;;;;5014597;28;19949;-60
2023/01/14 06:13:29;;;;;;;;;;;;;;;;;;5014293;28;20281;-61
2023/01/14 06:15:58;;;;;;;;;;;;;;;;;;5014298;28;19919;-58
2023/01/14 06:18:24;;;;;;;;;;;;;;;;;;5014000;28;20389;-59
2023/01/14 06:20:50;;;;;;;;;;;;;;;;;;5014275;28;19918;-60
2023/01/14 06:23:16;;;;;;;;;;;;;;;;;;5014151;28;19983;-60
2023/01/14 06:25:42;;;;;;;;;;;;;;;;;;5014132;28;19909;-60
2023/01/14 06:28:08;;;;;;;;;;;;;;;;;;5013908;28;19910;-60
2023/01/14 06:30:34;;;;;;;;;;;;;;;;;;5013956;28;19963;-61
2023/01/14 06:33:00;;;;;;;;;;;;;;;;;;5012623;28;20300;-59
2023/01/14 06:35:26;;;;;;;;;;;;;;;;;;5013885;28;20462;-60
2023/01/14 06:37:52;;;;;;;;;;;;;;;;;;5013864;28;19996;-61
2023/01/14 06:40:19;;;;;;;;;;;;;;;;;;5013935;28;20020;-60
2023/01/14 06:42:45;;;;;;;;;;;;;;;;;;5013830;28;20496;-60
2023/01/14 06:45:11;;;;;;;;;;;;;;;;;;5013764;28;20012;-61
2023/01/14 06:47:37;;;;;;;;;;;;;;;;;;5013738;28;20007;-60
2023/01/14 06:50:03;;;;;;;;;;;;;;;;;;5013447;28;19960;-60
2023/01/14 06:52:29;;;;;;;;;;;;;;;;;;5013346;28;19936;-60
2023/01/14 06:54:55;;;;;;;;;;;;;;;;;;5012958;28;19917;-59
2023/01/14 06:57:21;;;;;;;;;;;;;;;;;;5013559;28;19919;-61
2023/01/14 06:59:47;;;;;;;;;;;;;;;;;;5013194;28;20000;-58
2023/01/14 07:02:13;;;;;;;;;;;;;;;;;;5013402;28;19916;-59
2023/01/14 07:04:39;;;;;;;;;;;;;;;;;;5013364;28;20420;-60
2023/01/14 07:07:05;;;;;;;;;;;;;;;;;;5013428;28;20005;-59
2023/01/14 07:09:31;;;;;;;;;;;;;;;;;;5013046;28;20119;-60
2023/01/14 07:11:57;;;;;;;;;;;;;;;;;;5013138;28;20008;-60
2023/01/14 07:14:23;;;;;;;;;;;;;;;;;;5013286;28;20008;-60
2023/01/14 07:16:48;;;;;;;;;;;;;;;;;;5013256;28;19945;-61
2023/01/14 07:19:14;;;;;;;;;;;;;;;;;;5012925;28;19949;-60
2023/01/14 07:21:40;;;;;;;;;;;;;;;;;;5012991;28;19979;-60
2023/01/14 07:24:06;;;;;;;;;;;;;;;;;;5012996;28;20358;-59
2023/01/14 07:26:32;;;;;;;;;;;;;;;;;;5012956;28;19905;-61
2023/01/14 07:28:58;;;;;;;;;;;;;;;;;;5012888;28;19910;-59
2023/01/14 07:31:24;;;;;;;;;;;;;;;;;;5012874;28;19905;-60
2023/01/14 07:33:50;;;;;;;;;;;;;;;;;;5012853;28;19909;-59
2023/01/14 07:36:16;;;;;;;;;;;;;;;;;;5013083;28;19911;-60
2023/01/14 07:38:42;;;;;;;;;;;;;;;;;;5012840;28;19927;-57
2023/01/14 07:41:09;;;;;;;;;;;;;;;;;;5011971;28;20307;-58
2023/01/14 07:43:35;;;;;;;;;;;;;;;;;;5011392;28;19914;-60
2023/01/14 07:46:01;;;;;;;;;;;;;;;;;;5012719;28;19949;-59
2023/01/14 07:48:27;;;;;;;;;;;;;;;;;;5012404;28;19909;-59
2023/01/14 07:50:53;;;;;;;;;;;;;;;;;;5012660;28;19964;-60
2023/01/14 07:53:19;;;;;;;;;;;;;;;;;;5012843;28;19918;-60
2023/01/14 07:55:45;;;;;;;;;;;;;;;;;;5012496;28;19914;-58
2023/01/14 07:58:11;;;;;;;;;;;;;;;;;;5012405;28;20251;-59
2023/01/14 08:00:37;;;;;;;;;;;;;;;;;;5012394;28;20369;-58
2023/01/14 08:03:03;;;;;;;;;;;;;;;;;;5012258;28;20000;-59
2023/01/14 08:05:29;;;;;;;;;;;;;;;;;;5012265;28;20007;-58
2023/01/14 08:07:54;;;;;;;;;;;;;;;;;;5012401;28;19992;-59
2023/01/14 08:10:20;;;;;;;;;;;;;;;;;;5012146;28;20005;-59
2023/01/14 08:12:46;;;;;;;;;;;;;;;;;;5012337;28;20417;-59
2023/01/14 08:15:12;;;;;;;;;;;;;;;;;;5012324;28;19944;-60
2023/01/14 08:17:38;;;;;;;;;;;;;;;;;;5012200;28;19914;-59
2023/01/14 08:20:04;;;;;;;;;;;;;;;;;;5012003;28;19928;-59
2023/01/14 08:22:30;;;;;;;;;;;;;;;;;;5012025;28;19915;-58
2023/01/14 08:24:56;;;;;;;;;;;;;;;;;;5012135;28;19910;-59
2023/01/14 08:27:22;;;;;;;;;;;;;;;;;;5012108;28;19910;-59
2023/01/14 08:29:48;;;;;;;;;;;;;;;;;;5012010;28;19916;-59
2023/01/14 08:32:14;;;;;;;;;;;;;;;;;;5012005;28;20290;-59
2023/01/14 08:34:40;;;;;;;;;;;;;;;;;;5012030;28;19909;-59
2023/01/14 08:37:06;;;;;;;;;;;;;;;;;;5012034;28;19933;-59
2023/01/14 08:39:32;;;;;;;;;;;;;;;;;;5011910;28;20006;-59
2023/01/14 08:41:58;;;;;;;;;;;;;;;;;;5011989;28;20267;-60
2023/01/14 08:44:24;;;;;;;;;;;;;;;;;;5010801;28;19914;-59
2023/01/14 08:46:49;;;;;;;;;;;;;;;;;;5011912;28;19910;-59
2023/01/14 08:49:15;;;;;;;;;;;;;;;;;;5010501;28;19917;-60
2023/01/14 08:51:41;;;;;;;;;;;;;;;;;;5011616;28;20306;-60
2023/01/14 08:54:07;;;;;;;;;;;;;;;;;;5011988;28;20011;-61
2023/01/14 08:56:33;;;;;;;;;;;;;;;;;;5010620;28;19909;-62
2023/01/14 08:58:59;;;;;;;;;;;;;;;;;;5011837;28;19941;-62
2023/01/14 09:01:26;;;;;;;;;;;;;;;;;;5011620;28;19921;-62
2023/01/14 09:03:53;;;;;;;;;;;;;;;;;;5011907;28;20366;-62
2023/01/14 09:06:19;;;;;;;;;;;;;;;;;;5011985;28;19906;-62
2023/01/14 09:19:27;;;;;;;;;;;;;;;;;;5015264;28;19913;-60
2023/01/14 09:21:53;;;;;;;;;;;;;;;;;;5015284;28;19914;-62
2023/01/14 09:24:19;;;;;;;;;;;;;;;;;;5015108;28;19909;-62
2023/01/14 09:26:45;;;;;;;;;;;;;;;;;;5015287;28;20005;-60
2023/01/14 09:29:11;;;;;;;;;;;;;;;;;;5015066;28;20342;-61
2023/01/14 09:31:37;;;;;;;;;;;;;;;;;;5015160;28;20000;-62
2023/01/14 09:34:03;;;;;;;;;;;;;;;;;;5013958;28;19913;-61
2023/01/14 09:36:29;;;;;;;;;;;;;;;;;;5015074;28;19964;-61
2023/01/14 09:38:55;;;;;;;;;;;;;;;;;;5014907;28;19913;-62
2023/01/14 09:41:21;;;;;;;;;;;;;;;;;;5015008;28;19944;-62
2023/01/14 09:43:47;;;;;;;;;;;;;;;;;;5014968;28;20285;-62
2023/01/14 09:46:13;;;;;;;;;;;;;;;;;;5014928;28;19909;-62
2023/01/14 09:48:39;;;;;;;;;;;;;;;;;;5013455;28;19917;-62
2023/01/14 09:51:05;;;;;;;;;;;;;;;;;;5014833;28;19909;-62
2023/01/14 09:53:30;;;;;;;;;;;;;;;;;;5014649;28;19921;-62
2023/01/14 09:55:56;;;;;;;;;;;;;;;;;;5014982;28;19999;-62
2023/01/14 09:58:22;;;;;;;;;;;;;;;;;;5014460;28;20040;-60
2023/01/14 10:00:48;;;;;;;;;;;;;;;;;;5014537;28;20035;-60
2023/01/14 10:03:14;;;;;;;;;;;;;;;;;;5013331;28;20008;-60
2023/01/14 10:05:40;;;;;;;;;;;;;;;;;;5014584;28;19909;-60
2023/01/14 10:08:06;;;;;;;;;;;;;;;;;;5014292;28;19910;-60
2023/01/14 10:10:32;;;;;;;;;;;;;;;;;;5014462;28;19917;-60
2023/01/14 10:12:58;;;;;;;;;;;;;;;;;;5014356;28;19909;-60
2023/01/14 10:15:24;;;;;;;;;;;;;;;;;;5014374;28;20001;-62
2023/01/14 10:17:50;;;;;;;;;;;;;;;;;;5014314;28;19945;-59
2023/01/14 10:20:16;;;;;;;;;;;;;;;;;;5013996;28;20370;-60
2023/01/14 10:22:42;;;;;;;;;;;;;;;;;;5014133;28;19956;-60
2023/01/14 10:25:08;;;;;;;;;;;;;;;;;;5014250;28;19952;-61
2023/01/14 10:27:34;;;;;;;;;;;;;;;;;;5014121;28;19917;-60
2023/01/14 10:30:00;;;;;;;;;;;;;;;;;;5012776;28;19932;-60
2023/01/14 10:32:26;;;;;;;;;;;;;;;;;;5014103;28;19917;-60
2023/01/14 10:34:51;;;;;;;;;;;;;;;;;;5013998;28;20325;-60
2023/01/14 10:37:17;;;;;;;;;;;;;;;;;;5012666;28;19921;-60
2023/01/14 10:39:43;;;;;;;;;;;;;;;;;;5013632;28;19913;-60
2023/01/14 10:42:11;;;;;;;;;;;;;;;;;;5013806;28;19909;-59
2023/01/14 10:44:38;;;;;;;;;;;;;;;;;;5013969;28;19910;-60
2023/01/14 10:47:04;;;;;;;;;;;;;;;;;;5012531;28;19939;-60
2023/01/14 10:49:29;;;;;;;;;;;;;;;;;;5013576;28;19909;-60
2023/01/14 10:51:57;;;;;;;;;;;;;;;;;;5013423;28;20470;-60
2023/01/14 10:54:23;;;;;;;;;;;;;;;;;;5013733;28;19932;-60
2023/01/14 10:56:49;;;;;;;;;;;;;;;;;;5013531;28;20377;-60
2023/01/14 10:59:14;;;;;;;;;;;;;;;;;;5013350;28;19917;-60
2023/01/14 11:01:41;;;;;;;;;;;;;;;;;;5013411;28;20016;-59
2023/01/14 11:04:06;;;;;;;;;;;;;;;;;;5013502;28;19916;-59
2023/01/14 11:06:32;;;;;;;;;;;;;;;;;;5013333;28;20397;-61
2023/01/14 11:08:58;;;;;;;;;;;;;;;;;;5013189;28;19996;-61
2023/01/14 11:11:24;;;;;;;;;;;;;;;;;;5013237;28;20000;-61
2023/01/14 11:13:51;;;;;;;;;;;;;;;;;;5013345;28;20009;-60
2023/01/14 11:16:17;;;;;;;;;;;;;;;;;;5013318;28;19909;-60
2023/01/14 11:18:43;;;;;;;;;;;;;;;;;;5013017;28;20362;-61
2023/01/14 11:21:09;;;;;;;;;;;;;;;;;;5013040;28;19932;-61
2023/01/14 11:23:35;;;;;;;;;;;;;;;;;;5013157;28;19917;-60
2023/01/14 11:26:01;;;;;;;;;;;;;;;;;;5013068;28;19912;-60
2023/01/14 11:28:27;;;;;;;;;;;;;;;;;;5012875;28;19909;-60
2023/01/14 11:30:53;;;;;;;;;;;;;;;;;;5013020;28;20277;-61
2023/01/14 11:33:19;;;;;;;;;;;;;;;;;;5012897;28;19910;-61
2023/01/14 11:35:45;;;;;;;;;;;;;;;;;;5012884;28;20305;-59
2023/01/14 11:38:11;;;;;;;;;;;;;;;;;;5012724;28;19909;-58
2023/01/14 11:43:22;;;;;;;;;;;;;;;;;;5012786;28;20016;-61
2023/01/14 11:45:48;;;;;;;;;;;;;;;;;;5012811;28;19964;-61
2023/01/14 11:48:14;;;;;;;;;;;;;;;;;;5011139;28;19914;-61
2023/01/14 11:50:40;;;;;;;;;;;;;;;;;;5012619;28;19913;-61
2023/01/14 11:53:06;;;;;;;;;;;;;;;;;;5012368;28;20382;-60
2023/01/14 11:55:32;;;;;;;;;;;;;;;;;;5012605;28;20024;-61
2023/01/14 11:57:58;;;;;;;;;;;;;;;;;;5012532;28;20378;-61
2023/01/14 12:00:24;;;;;;;;;;;;;;;;;;5012163;28;19913;-61
2023/01/14 12:02:50;;;;;;;;;;;;;;;;;;5012291;28;19910;-60
2023/01/14 12:05:16;;;;;;;;;;;;;;;;;;5012594;28;20388;-61
2023/01/14 12:07:43;;;;;;;;;;;;;;;;;;5010963;28;20290;-61
2023/01/14 12:10:09;;;;;;;;;;;;;;;;;;5012255;28;19909;-61
2023/01/14 12:16:48;;;;;;;;;;;;;;;;;;5012243;28;19925;-61
2023/01/14 12:18:08;;;;;;;;;;;;;;;;;;5011980;28;20060;-60
2023/01/14 12:20:34;;;;;;;;;;;;;;;;;;5012041;28;20023;-61
2023/01/14 12:23:00;;;;;;;;;;;;;;;;;;5012564;28;20000;-62
2023/01/14 12:25:28;;;;;;;;;;;;;;;;;;5012171;28;20293;-62
2023/01/14 12:27:54;;;;;;;;;;;;;;;;;;5012352;28;19909;-61
2023/01/14 12:30:20;;;;;;;;;;;;;;;;;;5011314;28;19909;-62
2023/01/14 12:32:46;;;;;;;;;;;;;;;;;;5011812;28;19920;-62
2023/01/14 12:35:11;;;;;;;;;;;;;;;;;;5012361;28;19917;-62
2023/01/14 12:37:40;;;;;;;;;;;;;;;;;;5011986;28;19909;-62
2023/01/14 12:45:42;;;;;;;;;;;;;;;;;;5012009;28;20456;-62
2023/01/14 12:48:08;;;;;;;;;;;;;;;;;;5011883;28;19964;-62
2023/01/14 12:50:34;;;;;;;;;;;;;;;;;;5011811;28;19937;-62
2023/01/14 12:53:00;;;;;;;;;;;;;;;;;;5013849;28;20337;-64
2023/01/14 12:55:25;;;;;;;;;;;;;;;;;;5016047;28;19967;-62
2023/01/14 12:57:51;;;;;;;;;;;;;;;;;;5014410;28;20374;-62
2023/01/14 13:00:17;;;;;;;;;;;;;;;;;;5015313;28;19920;-62
2023/01/14 13:02:43;;;;;;;;;;;;;;;;;;5015684;28;19909;-63
2023/01/14 13:05:09;;;;;;;;;;;;;;;;;;5015464;28;19909;-61
2023/01/14 13:07:35;;;;;;;;;;;;;;;;;;5015638;28;20340;-62
2023/01/14 13:10:02;;;;;;;;;;;;;;;;;;5015317;28;20366;-61
2023/01/14 13:12:28;;;;;;;;;;;;;;;;;;5015465;28;19910;-62
2023/01/14 13:14:53;;;;;;;;;;;;;;;;;;5015434;28;19917;-62
2023/01/14 13:17:19;;;;;;;;;;;;;;;;;;5015495;28;19910;-63
2023/01/14 13:19:45;;;;;;;;;;;;;;;;;;5015086;28;19956;-63
2023/01/14 13:22:11;;;;;;;;;;;;;;;;;;5015369;28;19952;-62
2023/01/14 13:24:37;;;;;;;;;;;;;;;;;;5015259;28;19910;-62
2023/01/14 13:27:03;;;;;;;;;;;;;;;;;;5015261;28;19913;-62
2023/01/14 13:29:29;;;;;;;;;;;;;;;;;;5012803;28;19996;-62
2023/01/14 13:31:55;;;;;;;;;;;;;;;;;;5015192;28;20068;-62
2023/01/14 13:34:21;;;;;;;;;;;;;;;;;;5015143;28;19910;-62
2023/01/14 13:36:47;;;;;;;;;;;;;;;;;;5013855;28;19963;-62
2023/01/14 13:39:13;;;;;;;;;;;;;;;;;;5014837;28;20336;-62
2023/01/14 13:41:39;;;;;;;;;;;;;;;;;;5014808;28;20290;-63
2023/01/14 13:44:05;;;;;;;;;;;;;;;;;;5015023;28;19909;-62
2023/01/14 13:46:31;;;;;;;;;;;;;;;;;;5014868;28;20353;-62
2023/01/14 13:48:57;;;;;;;;;;;;;;;;;;5014213;28;19909;-62
2023/01/14 13:51:23;;;;;;;;;;;;;;;;;;5014698;28;20374;-62
2023/01/14 13:53:49;;;;;;;;;;;;;;;;;;5015140;28;19921;-61
2023/01/14 13:56:15;;;;;;;;;;;;;;;;;;5015072;28;19936;-62
2023/01/14 13:58:40;;;;;;;;;;;;;;;;;;5014356;28;19910;-62
2023/01/14 14:01:06;;;;;;;;;;;;;;;;;;5014436;28;19913;-62
2023/01/14 14:03:33;;;;;;;;;;;;;;;;;;5012704;28;19955;-62
2023/01/14 14:05:59;;;;;;;;;;;;;;;;;;5014420;28;20004;-63
2023/01/14 14:08:26;;;;;;;;;;;;;;;;;;5014077;28;19963;-62
2023/01/14 14:10:51;;;;;;;;;;;;;;;;;;5014439;28;19917;-62
2023/01/14 14:16:02;;;;;;;;;;;;;;;;;;5014280;28;19916;-63
2023/01/14 14:18:28;;;;;;;;;;;;;;;;;;5014142;28;19910;-63
2023/01/14 14:20:54;;;;;;;;;;;;;;;;;;5014018;28;20428;-63
2023/01/14 14:23:20;;;;;;;;;;;;;;;;;;5014074;28;20252;-63
2023/01/14 14:25:47;;;;;;;;;;;;;;;;;;5014171;28;20006;-63
2023/01/14 14:28:13;;;;;;;;;;;;;;;;;;5013839;28;19917;-63
2023/01/14 14:30:39;;;;;;;;;;;;;;;;;;5013928;28;19909;-63
2023/01/14 14:33:05;;;;;;;;;;;;;;;;;;5012598;28;19909;-63
2023/01/14 14:35:30;;;;;;;;;;;;;;;;;;5013912;28;20298;-62
2023/01/14 14:37:56;;;;;;;;;;;;;;;;;;5013898;28;20397;-63
2023/01/14 14:40:22;;;;;;;;;;;;;;;;;;5013604;28;20439;-63
2023/01/14 14:42:48;;;;;;;;;;;;;;;;;;5013652;28;20008;-63
2023/01/14 14:45:14;;;;;;;;;;;;;;;;;;5013638;28;19956;-63
2023/01/14 14:47:40;;;;;;;;;;;;;;;;;;5013912;28;19909;-64
2023/01/14 14:50:06;;;;;;;;;;;;;;;;;;5013465;28;19913;-66
2023/01/14 14:52:32;;;;;;;;;;;;;;;;;;5013303;28;19947;-63
2023/01/14 14:54:58;;;;;;;;;;;;;;;;;;5012253;28;19913;-63
2023/01/14 14:57:24;;;;;;;;;;;;;;;;;;5013513;28;20380;-62
2023/01/14 14:59:51;;;;;;;;;;;;;;;;;;5013118;28;19933;-62
2023/01/14 15:02:17;;;;;;;;;;;;;;;;;;5013448;28;19910;-62
2023/01/14 15:04:43;;;;;;;;;;;;;;;;;;5012063;28;19917;-63
2023/01/14 15:07:09;;;;;;;;;;;;;;;;;;5013325;28;19909;-61
2023/01/14 15:09:35;;;;;;;;;;;;;;;;;;5013101;28;19916;-62
2023/01/14 15:12:01;;;;;;;;;;;;;;;;;;5013105;28;19996;-60
2023/01/14 15:14:26;;;;;;;;;;;;;;;;;;5012772;28;19964;-63
2023/01/14 15:16:53;;;;;;;;;;;;;;;;;;5012741;28;19909;-65
2023/01/14 15:19:18;;;;;;;;;;;;;;;;;;5012825;28;19917;-63
2023/01/14 15:21:44;;;;;;;;;;;;;;;;;;5012937;28;19914;-63
2023/01/14 15:24:10;;;;;;;;;;;;;;;;;;5012935;28;19911;-63
2023/01/14 15:26:36;;;;;;;;;;;;;;;;;;5012901;28;19913;-63
2023/01/14 15:29:02;;;;;;;;;;;;;;;;;;5012631;28;19916;-63
2023/01/14 15:31:30;;;;;;;;;;;;;;;;;;5012900;28;20413;-63
2023/01/14 15:33:56;;;;;;;;;;;;;;;;;;5012757;28;19968;-64
2023/01/14 15:36:22;;;;;;;;;;;;;;;;;;5012785;28;20000;-66
2023/01/14 15:38:47;;;;;;;;;;;;;;;;;;5012646;28;19909;-64
2023/01/14 15:41:13;;;;;;;;;;;;;;;;;;5012569;28;19920;-64
2023/01/14 15:43:40;;;;;;;;;;;;;;;;;;5012609;28;19913;-64
2023/01/14 15:46:07;;;;;;;;;;;;;;;;;;5012549;28;19929;-67
2023/01/14 15:48:34;;;;;;;;;;;;;;;;;;5012489;28;19910;-66
2023/01/14 15:51:00;;;;;;;;;;;;;;;;;;5012635;28;19992;-69
2023/01/14 15:53:27;;;;;;;;;;;;;;;;;;5012457;28;19953;-69
2023/01/14 15:55:53;;;;;;;;;;;;;;;;;;5011156;28;20298;-64
2023/01/14 15:58:19;;;;;;;;;;;;;;;;;;5012238;28;19909;-64
2023/01/14 16:00:45;;;;;;;;;;;;;;;;;;5012548;28;19920;-63
2023/01/14 16:03:11;;;;;;;;;;;;;;;;;;5012080;28;19910;-63
2023/01/14 16:05:38;;;;;;;;;;;;;;;;;;5012355;28;19910;-63
2023/01/14 16:08:03;;;;;;;;;;;;;;;;;;5012322;28;20297;-64
2023/01/14 16:10:30;;;;;;;;;;;;;;;;;;5012244;28;19929;-64
2023/01/14 16:12:56;;;;;;;;;;;;;;;;;;5012116;28;19941;-64
2023/01/14 16:15:22;;;;;;;;;;;;;;;;;;5012219;28;20352;-64
2023/01/14 16:17:48;;;;;;;;;;;;;;;;;;5012338;28;20000;-63
2023/01/14 16:20:13;;;;;;;;;;;;;;;;;;5010544;28;19913;-64
2023/01/14 16:22:39;;;;;;;;;;;;;;;;;;5012087;28;20290;-67
2023/01/14 16:25:05;;;;;;;;;;;;;;;;;;5012094;28;20465;-68
2023/01/14 16:27:33;;;;;;;;;;;;;;;;;;5011887;28;19910;-63
2023/01/14 16:29:59;;;;;;;;;;;;;;;;;;5012098;28;20286;-64
2023/01/14 16:32:25;;;;;;;;;;;;;;;;;;5012451;28;19917;-63
2023/01/14 16:34:50;;;;;;;;;;;;;;;;;;5012341;28;20534;-63
2023/01/14 16:37:16;;;;;;;;;;;;;;;;;;5012254;28;19909;-62
2023/01/14 16:39:42;;;;;;;;;;;;;;;;;;5011974;28;19917;-63
2023/01/14 16:42:08;;;;;;;;;;;;;;;;;;5011889;28;19964;-62
2023/01/14 16:44:34;;;;;;;;;;;;;;;;;;5012476;28;19956;-63
2023/01/14 16:47:00;;;;;;;;;;;;;;;;;;5011877;28;20469;-61
2023/01/14 16:49:26;;;;;;;;;;;;;;;;;;5010517;28;19956;-64
2023/01/14 16:51:52;;;;;;;;;;;;;;;;;;5011717;28;19921;-63
2023/01/14 16:54:18;;;;;;;;;;;;;;;;;;5012010;28;19913;-63
2023/01/14 16:56:44;;;;;;;;;;;;;;;;;;5011839;28;19910;-62
2023/01/14 16:59:10;;;;;;;;;;;;;;;;;;5011558;28;20012;-63
2023/01/14 17:01:37;;;;;;;;;;;;;;;;;;5011631;28;20063;-63
2023/01/14 17:04:03;;;;;;;;;;;;;;;;;;5011781;28;20442;-63
2023/01/14 17:06:29;;;;;;;;;;;;;;;;;;5011862;28;19949;-63
2023/01/14 17:08:55;;;;;;;;;;;;;;;;;;5011542;28;19953;-63
2023/01/14 17:14:05;;;;;;;;;;;;;;;;;;5011680;28;19959;-65
2023/01/14 17:16:31;;;;;;;;;;;;;;;;;;5011669;28;19932;-65
2023/01/14 17:18:57;;;;;;;;;;;;;;;;;;5011402;28;20370;-63
2023/01/14 17:21:23;;;;;;;;;;;;;;;;;;5010162;28;20291;-61
2023/01/14 17:23:49;;;;;;;;;;;;;;;;;;5010364;28;19964;-64